createdAt,value
2023-12-23T00:01:30.427Z,98481.47
2023-12-23T00:04:33.014Z,98489.38
2023-12-23T00:07:37.043Z,98486.50
2023-12-23T00:10:39.707Z,98496.22
2023-12-23T00:13:42.272Z,98485.06
2023-12-23T00:16:44.767Z,98469.47
2023-12-23T00:19:47.479Z,98463.38
2023-12-23T00:22:50.176Z,98466.22
2023-12-23T00:25:52.806Z,98471.09
2023-12-23T00:28:56.068Z,98452.03
2023-12-23T00:31:58.826Z,98449.63
2023-12-23T00:35:01.426Z,98441.50
2023-12-23T00:38:04.174Z,98434.44
2023-12-23T00:41:06.973Z,98394.50
2023-12-23T00:44:10.038Z,98411.94
2023-12-23T00:47:12.628Z,98439.84
2023-12-23T00:50:15.382Z,98429.94
2023-12-23T00:53:18.088Z,98441.03
2023-12-23T00:56:24.033Z,98453.56
2023-12-23T00:59:26.587Z,98465.31
2023-12-23T01:02:29.010Z,98471.16
2023-12-23T01:05:31.634Z,98470.38
2023-12-23T01:08:34.192Z,98481.31
2023-12-23T01:11:36.777Z,98478.88
2023-12-23T01:14:39.350Z,98520.19
2023-12-23T01:17:42.506Z,98533.19
2023-12-23T01:20:45.109Z,98524.91
2023-12-23T01:23:47.710Z,98487.59
2023-12-23T01:26:50.195Z,98534.97
2023-12-23T01:29:52.896Z,98512.13
2023-12-23T01:32:55.524Z,98496.50
2023-12-23T01:35:58.188Z,98487.16
2023-12-23T01:39:00.897Z,98481.69
2023-12-23T01:42:03.504Z,98496.25
2023-12-23T01:45:06.501Z,98494.66
2023-12-23T01:48:12.154Z,98477.50
2023-12-23T01:51:15.790Z,98508.91
2023-12-23T01:54:20.485Z,98489.28
2023-12-23T01:57:23.107Z,98490.66
2023-12-23T02:00:25.639Z,98509.94
2023-12-23T02:03:29.851Z,98495.69
2023-12-23T02:06:32.825Z,98511.69
2023-12-23T02:09:36.200Z,98507.16
2023-12-23T02:13:13.038Z,98525.59
2023-12-23T02:16:16.937Z,98524.19
2023-12-23T02:19:19.745Z,98526.91
2023-12-23T02:22:22.424Z,98517.25
2023-12-23T02:25:25.084Z,98507.94
2023-12-23T02:28:27.725Z,98514.25
2023-12-23T02:31:31.595Z,98514.31
2023-12-23T02:34:35.246Z,98541.09
2023-12-23T02:37:37.831Z,98540.72
2023-12-23T02:40:40.390Z,98525.75
2023-12-23T02:43:42.989Z,98510.34
2023-12-23T02:46:45.540Z,98522.72
2023-12-23T02:49:48.074Z,98550.66
2023-12-23T02:52:51.725Z,98572.81
2023-12-23T02:55:54.541Z,98580.28
2023-12-23T02:58:57.094Z,98588.75
2023-12-23T03:01:59.708Z,98591.75
2023-12-23T03:05:02.449Z,98588.50
2023-12-23T03:08:05.363Z,98597.41
2023-12-23T03:11:09.653Z,98600.66
2023-12-23T03:14:12.361Z,98582.59
2023-12-23T03:17:15.102Z,98600.22
2023-12-23T03:20:17.799Z,98609.75
2023-12-23T03:23:20.469Z,98617.22
2023-12-23T03:26:23.322Z,98616.81
2023-12-23T03:29:26.389Z,98633.19
2023-12-23T03:32:28.969Z,98610.50
2023-12-23T03:35:31.530Z,98599.72
2023-12-23T03:38:34.195Z,98581.03
2023-12-23T03:41:36.686Z,98562.59
2023-12-23T03:44:39.137Z,98571.13
2023-12-23T03:47:42.430Z,98577.91
2023-12-23T03:50:45.131Z,98572.56
2023-12-23T03:53:47.932Z,98565.13
2023-12-23T03:56:52.092Z,98556.25
2023-12-23T03:59:54.821Z,98560.03
2023-12-23T04:02:58.638Z,98562.31
2023-12-23T04:06:02.580Z,98556.25
2023-12-23T04:09:04.999Z,98534.72
2023-12-23T04:12:07.860Z,98550.94
2023-12-23T04:15:11.112Z,98529.47
2023-12-23T04:18:13.816Z,98534.72
2023-12-23T04:21:16.381Z,98534.09
2023-12-23T04:24:21.188Z,98519.75
2023-12-23T04:27:23.645Z,98524.16
2023-12-23T04:30:26.245Z,98507.91
2023-12-23T04:33:29.571Z,98514.44
2023-12-23T04:36:32.566Z,98528.84
2023-12-23T04:39:35.181Z,98527.25
2023-12-23T04:42:39.192Z,98536.38
2023-12-23T04:45:41.872Z,98561.13
2023-12-23T04:48:44.781Z,98538.41
2023-12-23T04:51:47.433Z,98526.13
2023-12-23T04:54:50.246Z,98583.16
2023-12-23T04:57:52.953Z,98566.50
2023-12-23T05:00:55.476Z,98585.09
2023-12-23T05:03:58.047Z,98602.63
2023-12-23T05:07:00.686Z,98597.19
2023-12-23T05:10:04.271Z,98630.34
2023-12-23T05:13:06.934Z,98651.28
2023-12-23T05:16:09.885Z,98664.22
2023-12-23T05:19:12.472Z,98674.53
2023-12-23T05:22:15.698Z,98690.72
2023-12-23T05:25:18.271Z,98693.28
2023-12-23T05:28:21.018Z,98702.72
2023-12-23T05:31:23.886Z,98717.75
2023-12-23T05:34:26.905Z,98719.38
2023-12-23T05:37:30.345Z,98708.81
2023-12-23T05:40:32.886Z,98703.91
2023-12-23T05:43:35.671Z,98731.44
2023-12-23T05:46:38.200Z,98736.72
2023-12-23T05:49:40.833Z,98751.66
2023-12-23T05:52:45.377Z,98751.09
2023-12-23T05:55:48.437Z,98798.88
2023-12-23T05:58:51.055Z,98779.91
2023-12-23T06:01:53.641Z,98741.34
2023-12-23T06:04:56.551Z,98731.78
2023-12-23T06:07:59.611Z,98746.88
2023-12-23T06:11:05.693Z,98761.69
2023-12-23T06:14:08.900Z,98778.16
2023-12-23T06:17:11.479Z,98783.50
2023-12-23T06:20:14.043Z,98773.13
2023-12-23T06:23:16.595Z,98776.34
2023-12-23T06:26:19.221Z,98775.34
2023-12-23T06:29:21.897Z,98767.66
2023-12-23T06:32:24.734Z,98789.56
2023-12-23T06:35:27.456Z,98818.00
2023-12-23T06:38:30.028Z,98817.03
2023-12-23T06:41:32.676Z,98813.59
2023-12-23T06:44:35.258Z,98857.69
2023-12-23T06:47:37.975Z,98846.94
2023-12-23T06:50:40.643Z,98851.13
2023-12-23T06:53:43.232Z,98826.31
2023-12-23T06:56:45.744Z,98846.97
2023-12-23T06:59:48.422Z,98887.94
2023-12-23T07:02:52.850Z,98879.97
2023-12-23T07:05:55.744Z,98880.03
2023-12-23T07:08:58.290Z,98901.34
2023-12-23T07:12:00.839Z,98903.34
2023-12-23T07:15:05.109Z,98909.88
2023-12-23T07:18:08.386Z,98923.00
2023-12-23T07:21:11.079Z,98932.97
2023-12-23T07:24:13.666Z,98930.78
2023-12-23T07:27:16.167Z,98959.38
2023-12-23T07:30:18.718Z,98964.34
2023-12-23T07:33:22.502Z,98981.75
2023-12-23T07:36:25.052Z,98990.94
2023-12-23T07:39:27.634Z,98996.03
2023-12-23T07:42:30.144Z,98985.72
2023-12-23T07:45:33.085Z,98989.19
2023-12-23T07:48:35.547Z,98997.28
2023-12-23T07:51:38.978Z,99012.38
2023-12-23T07:54:41.484Z,99022.94
2023-12-23T07:57:44.042Z,99029.00
2023-12-23T08:00:47.713Z,99033.53
2023-12-23T08:03:50.370Z,99041.84
2023-12-23T08:06:53.867Z,99057.31
2023-12-23T08:09:56.426Z,99093.03
2023-12-23T08:12:58.928Z,99081.22
2023-12-23T08:16:02.074Z,99096.41
2023-12-23T08:19:04.991Z,99087.69
2023-12-23T08:22:07.852Z,99087.63
2023-12-23T08:25:10.356Z,99097.97
2023-12-23T08:28:13.007Z,99107.19
2023-12-23T08:31:15.559Z,99115.50
2023-12-23T08:34:20.168Z,99124.03
2023-12-23T08:37:24.030Z,99111.47
2023-12-23T08:40:27.325Z,99113.06
2023-12-23T08:43:29.876Z,99118.00
2023-12-23T08:46:35.255Z,99129.72
2023-12-23T08:49:43.086Z,99105.22
2023-12-23T08:52:45.712Z,99135.50
2023-12-23T08:55:48.344Z,99160.91
2023-12-23T08:58:50.806Z,99132.75
2023-12-23T09:01:53.280Z,99152.72
2023-12-23T09:04:55.845Z,99147.00
2023-12-23T09:07:58.819Z,99166.38
2023-12-23T09:11:05.510Z,99162.03
2023-12-23T09:14:08.064Z,99171.47
2023-12-23T09:17:10.548Z,99166.31
2023-12-23T09:20:13.175Z,99148.97
2023-12-23T09:23:15.842Z,99159.59
2023-12-23T09:26:18.618Z,99161.41
2023-12-23T09:29:21.500Z,99164.94
2023-12-23T09:32:24.280Z,99160.78
2023-12-23T09:35:26.847Z,99152.88
2023-12-23T09:38:29.413Z,99153.34
2023-12-23T09:41:33.311Z,99140.44
2023-12-23T09:44:35.883Z,99146.94
2023-12-23T09:47:38.553Z,99138.63
2023-12-23T09:50:41.233Z,99144.75
2023-12-23T09:53:47.956Z,99154.50
2023-12-23T09:56:51.982Z,99160.28
2023-12-23T09:59:55.505Z,99167.31
2023-12-23T10:02:58.103Z,99171.72
2023-12-23T10:06:02.210Z,99187.69
2023-12-23T10:09:05.095Z,99184.22
2023-12-23T10:12:08.051Z,99196.97
2023-12-23T10:15:12.873Z,99186.69
2023-12-23T10:18:15.573Z,99181.88
2023-12-23T10:21:19.657Z,99174.22
2023-12-23T10:24:22.150Z,99176.66
2023-12-23T10:27:27.417Z,99184.03
2023-12-23T10:30:34.527Z,99175.47
2023-12-23T10:33:42.884Z,99180.13
2023-12-23T10:36:45.780Z,99173.38
2023-12-23T10:39:54.042Z,99166.84
2023-12-23T10:42:59.570Z,99161.19
2023-12-23T10:46:04.576Z,99166.22
2023-12-23T10:49:08.758Z,99173.88
2023-12-23T10:52:12.607Z,99170.84
2023-12-23T10:55:17.389Z,99169.03
2023-12-23T10:58:22.073Z,99170.94
2023-12-23T11:01:30.341Z,99157.72
2023-12-23T11:04:33.205Z,99165.84
2023-12-23T11:07:42.240Z,99159.31
2023-12-23T11:10:46.588Z,99152.03
2023-12-23T11:13:49.181Z,99144.53
2023-12-23T11:16:51.727Z,99138.63
2023-12-23T11:19:58.931Z,99140.81
2023-12-23T11:23:21.818Z,99137.72
2023-12-23T11:26:36.565Z,99130.81
2023-12-23T11:29:39.843Z,99135.00
2023-12-23T11:32:45.071Z,99131.75
2023-12-23T11:35:48.636Z,99126.88
2023-12-23T11:38:53.351Z,99128.97
2023-12-23T11:41:56.582Z,99117.81
2023-12-23T11:45:00.946Z,99112.06
2023-12-23T11:48:03.732Z,99112.19
2023-12-23T11:51:08.193Z,99123.56
2023-12-23T11:54:10.847Z,99115.81
2023-12-23T11:57:13.547Z,99098.09
2023-12-23T12:00:16.400Z,99091.38
2023-12-23T12:03:18.947Z,99080.63
2023-12-23T12:06:21.545Z,99080.06
2023-12-23T12:09:24.279Z,99073.97
2023-12-23T12:12:27.747Z,99080.22
2023-12-23T12:15:30.301Z,99073.03
2023-12-23T12:18:32.880Z,99064.13
2023-12-23T12:21:35.451Z,99060.28
2023-12-23T12:24:39.132Z,99054.38
2023-12-23T12:27:41.931Z,99042.47
2023-12-23T12:30:48.336Z,99043.19
2023-12-23T12:33:51.540Z,99037.25
2023-12-23T12:36:54.961Z,99031.03
2023-12-23T12:39:59.154Z,99038.34
2023-12-23T12:43:09.262Z,99025.06
2023-12-23T12:46:16.195Z,99018.16
2023-12-23T12:49:20.542Z,99015.34
2023-12-23T12:52:22.996Z,99019.91
2023-12-23T12:55:25.687Z,99009.25
2023-12-23T12:58:28.243Z,99013.38
2023-12-23T13:01:30.843Z,99010.38
2023-12-23T13:04:33.534Z,99019.72
2023-12-23T13:07:36.062Z,99039.97
2023-12-23T13:10:38.635Z,99038.97
2023-12-23T13:13:41.142Z,99050.50
2023-12-23T13:16:46.373Z,99052.50
2023-12-23T13:19:50.393Z,99054.72
2023-12-23T13:22:53.291Z,99054.25
2023-12-23T13:25:56.087Z,99060.97
2023-12-23T13:28:58.688Z,99054.66
2023-12-23T13:32:01.300Z,99064.25
2023-12-23T13:35:04.730Z,99059.69
2023-12-23T13:38:07.658Z,99057.03
2023-12-23T13:41:11.358Z,99063.31
2023-12-23T13:44:14.045Z,99055.78
2023-12-23T13:47:16.671Z,99050.69
2023-12-23T13:50:19.359Z,99051.84
2023-12-23T13:53:21.919Z,99040.47
2023-12-23T13:56:24.937Z,99042.84
2023-12-23T13:59:27.564Z,99041.34
2023-12-23T14:02:30.208Z,99055.16
2023-12-23T14:05:32.855Z,99067.81
2023-12-23T14:08:35.823Z,99068.84
2023-12-23T14:11:38.398Z,99071.47
2023-12-23T14:14:40.898Z,99066.03
2023-12-23T14:17:43.502Z,99056.69
2023-12-23T14:20:46.078Z,99059.94
2023-12-23T14:23:48.663Z,99052.34
2023-12-23T14:26:51.215Z,99057.44
2023-12-23T14:29:53.718Z,99066.16
2023-12-23T14:32:56.353Z,99057.13
2023-12-23T14:35:59.819Z,99048.91
2023-12-23T14:39:03.955Z,99056.84
2023-12-23T14:42:06.649Z,99060.63
2023-12-23T14:45:09.722Z,99068.22
2023-12-23T14:48:12.639Z,99071.50
2023-12-23T14:51:15.292Z,99070.34
2023-12-23T14:54:17.749Z,99069.66
2023-12-23T14:57:20.332Z,99067.66
2023-12-23T15:00:22.926Z,99059.59
2023-12-23T15:03:25.676Z,99062.53
2023-12-23T15:06:28.544Z,99066.50
2023-12-23T15:09:31.682Z,99074.09
2023-12-23T15:12:34.421Z,99073.56
2023-12-23T15:15:37.166Z,99074.91
2023-12-23T15:18:39.924Z,99078.53
2023-12-23T15:21:42.415Z,99075.25
2023-12-23T15:24:44.985Z,99079.53
2023-12-23T15:27:47.574Z,99082.16
2023-12-23T15:30:56.436Z,99082.84
2023-12-23T15:33:59.750Z,99089.91
2023-12-23T15:37:02.439Z,99085.47
2023-12-23T15:40:06.341Z,99082.31
2023-12-23T15:43:11.114Z,99075.13
2023-12-23T15:46:17.169Z,99077.25
2023-12-23T15:49:19.810Z,99075.75
2023-12-23T15:52:22.497Z,99081.34
2023-12-23T15:55:25.879Z,99090.56
2023-12-23T15:58:28.512Z,99081.31
2023-12-23T16:01:31.050Z,99089.03
2023-12-23T16:04:33.797Z,99087.75
2023-12-23T16:07:36.427Z,99085.31
2023-12-23T16:10:39.696Z,99081.53
2023-12-23T16:13:48.519Z,99086.13
2023-12-23T16:16:51.285Z,99080.56
2023-12-23T16:19:54.012Z,99075.94
2023-12-23T16:22:56.671Z,99072.84
2023-12-23T16:26:00.402Z,99063.94
2023-12-23T16:29:04.752Z,99065.13
2023-12-23T16:32:07.355Z,99059.88
2023-12-23T16:35:10.122Z,99048.84
2023-12-23T16:38:12.749Z,99047.41
2023-12-23T16:41:15.359Z,99044.63
2023-12-23T16:44:18.104Z,99048.38
2023-12-23T16:47:20.858Z,99045.06
2023-12-23T16:50:23.616Z,99055.25
2023-12-23T16:53:26.231Z,99058.66
2023-12-23T16:56:28.823Z,99060.28
2023-12-23T16:59:31.513Z,99066.84
2023-12-23T17:02:34.221Z,99057.13
2023-12-23T17:05:36.867Z,99061.59
2023-12-23T17:08:40.618Z,99061.13
2023-12-23T17:11:43.199Z,99070.75
2023-12-23T17:14:49.306Z,99084.06
2023-12-23T17:17:51.966Z,99088.97
2023-12-23T17:20:54.614Z,99101.28
2023-12-23T17:23:57.135Z,99096.19
2023-12-23T17:27:01.487Z,99096.28
2023-12-23T17:30:04.525Z,99090.25
2023-12-23T17:33:13.439Z,99076.19
2023-12-23T17:36:16.497Z,99071.06
2023-12-23T17:39:22.025Z,99066.97
2023-12-23T17:42:24.601Z,99089.84
2023-12-23T17:45:27.092Z,99095.72
2023-12-23T17:48:29.695Z,99087.81
2023-12-23T17:51:32.370Z,99070.59
2023-12-23T17:54:34.890Z,99069.31
2023-12-23T17:57:37.517Z,99068.47
2023-12-23T18:00:40.105Z,99071.28
2023-12-23T18:03:42.732Z,99082.81
2023-12-23T18:06:45.712Z,99092.97
2023-12-23T18:09:48.218Z,99078.53
2023-12-23T18:12:51.296Z,99090.69
2023-12-23T18:15:55.806Z,99091.66
2023-12-23T18:18:58.377Z,99083.94
2023-12-23T18:22:02.672Z,99095.66
2023-12-23T18:25:06.044Z,99091.50
2023-12-23T18:28:08.726Z,99099.03
2023-12-23T18:31:11.264Z,99096.59
2023-12-23T18:34:14.012Z,99100.22
2023-12-23T18:37:17.809Z,99112.38
2023-12-23T18:40:20.508Z,99116.81
2023-12-23T18:43:23.020Z,99114.03
2023-12-23T18:46:25.687Z,99116.16
2023-12-23T18:49:28.492Z,99122.53
2023-12-23T18:52:31.032Z,99116.16
2023-12-23T18:55:34.292Z,99114.41
2023-12-23T18:58:36.923Z,99133.28
2023-12-23T19:01:39.463Z,99130.97
2023-12-23T19:04:42.266Z,99137.06
2023-12-23T19:07:44.792Z,99125.25
2023-12-23T19:10:47.828Z,99136.72
2023-12-23T19:13:50.360Z,99140.88
2023-12-23T19:16:53.140Z,99145.31
2023-12-23T19:19:55.776Z,99146.63
2023-12-23T19:22:58.741Z,99143.13
2023-12-23T19:26:01.272Z,99158.91
2023-12-23T19:29:03.911Z,99159.19
2023-12-23T19:32:06.888Z,99169.88
2023-12-23T19:35:10.098Z,99182.06
2023-12-23T19:38:12.833Z,99181.38
2023-12-23T19:41:15.777Z,99183.50
2023-12-23T19:44:19.102Z,99190.38
2023-12-23T19:47:21.715Z,99186.72
2023-12-23T19:50:24.284Z,99194.53
2023-12-23T19:53:29.003Z,99198.41
2023-12-23T19:56:31.721Z,99200.81
2023-12-23T19:59:34.408Z,99203.31
2023-12-23T20:02:37.051Z,99203.34
2023-12-23T20:05:39.768Z,99200.88
2023-12-23T20:08:42.455Z,99215.31
2023-12-23T20:11:45.272Z,99204.00
2023-12-23T20:14:47.848Z,99209.16
2023-12-23T20:17:50.524Z,99221.38
2023-12-23T20:20:53.078Z,99228.22
2023-12-23T20:23:55.630Z,99223.69
2023-12-23T20:26:59.763Z,99228.91
2023-12-23T20:30:03.891Z,99233.47
2023-12-23T20:33:06.526Z,99243.66
2023-12-23T20:36:09.358Z,99258.75
2023-12-23T20:39:11.986Z,99249.09
2023-12-23T20:42:28.243Z,99262.22
2023-12-23T20:45:30.750Z,99255.78
2023-12-23T20:48:33.547Z,99271.94
2023-12-23T20:51:36.293Z,99265.94
2023-12-23T20:54:39.735Z,99279.50
2023-12-23T20:57:42.256Z,99272.56
2023-12-23T21:00:45.021Z,99279.63
2023-12-23T21:03:47.722Z,99281.28
2023-12-23T21:06:51.143Z,99284.22
2023-12-23T21:09:56.263Z,99286.25
2023-12-23T21:13:01.109Z,99295.59
2023-12-23T21:16:04.563Z,99297.75
2023-12-23T21:19:07.203Z,99308.94
2023-12-23T21:22:09.833Z,99308.28
2023-12-23T21:25:12.495Z,99310.94
2023-12-23T21:28:17.071Z,99313.75
2023-12-23T21:31:19.635Z,99327.91
2023-12-23T21:34:23.319Z,99332.88
2023-12-23T21:37:25.920Z,99339.31
2023-12-23T21:40:28.495Z,99331.94
2023-12-23T21:43:31.161Z,99326.19
2023-12-23T21:46:33.679Z,99332.28
2023-12-23T21:49:36.271Z,99340.81
2023-12-23T21:52:42.138Z,99353.16
2023-12-23T21:55:44.674Z,99355.63
2023-12-23T21:58:48.486Z,99355.16
2023-12-23T22:01:51.059Z,99363.22
2023-12-23T22:04:53.854Z,99360.75
2023-12-23T22:07:56.474Z,99367.47
2023-12-23T22:10:59.025Z,99359.94
2023-12-23T22:14:01.688Z,99374.09
2023-12-23T22:17:04.588Z,99376.06
2023-12-23T22:20:07.557Z,99379.03
2023-12-23T22:23:10.624Z,99379.03
2023-12-23T22:26:13.861Z,99378.19
2023-12-23T22:29:16.504Z,99385.56
2023-12-23T22:32:19.128Z,99385.75
2023-12-23T22:35:21.794Z,99375.88
2023-12-23T22:38:24.421Z,99388.19
2023-12-23T22:41:28.780Z,99375.69
2023-12-23T22:44:31.443Z,99393.78
2023-12-23T22:47:34.306Z,99398.56
2023-12-23T22:50:36.975Z,99407.44
2023-12-23T22:53:39.536Z,99396.25
2023-12-23T22:56:42.080Z,99399.53
2023-12-23T22:59:44.625Z,99407.44
2023-12-23T23:02:47.513Z,99410.06
2023-12-23T23:05:50.935Z,99408.72
2023-12-23T23:08:53.784Z,99409.91
2023-12-23T23:11:56.300Z,99422.91
2023-12-23T23:14:58.790Z,99414.16
2023-12-23T23:18:01.657Z,99418.78
2023-12-23T23:21:04.467Z,99417.13
2023-12-23T23:24:07.229Z,99422.59
2023-12-23T23:27:09.771Z,99425.22
2023-12-23T23:30:12.670Z,99419.28
2023-12-23T23:33:15.343Z,99422.09
2023-12-23T23:36:19.914Z,99432.28
2023-12-23T23:39:22.500Z,99434.28
2023-12-23T23:42:25.086Z,99438.38
2023-12-23T23:45:27.623Z,99433.94
2023-12-23T23:48:30.210Z,99440.03
2023-12-23T23:51:32.768Z,99442.66
2023-12-23T23:54:35.303Z,99450.91
2023-12-23T23:57:42.282Z,99452.38
